Time;durP1;ratioP1;P1;durP2;ratioP2;P2;SDS_P1;SDS_P2;PMS_P1;PMS_P2;Temp;Humidity;BMP_temperature;BMP_pressure;BME280_temperature;BME280_humidity;BME280_pressure;Samples;Min_cycle;Max_cycle;Signal;HPM_P1;HPM_P2
2023/09/22 00:00:41;;;;;;;9.70;5.55;;;16.80;99.90;;;;;;5024511;28;20033;-54
2023/09/22 00:03:08;;;;;;;6.03;4.30;;;16.80;99.90;;;;;;5026036;28;20029;-54
2023/09/22 00:05:33;;;;;;;9.60;4.47;;;16.80;99.90;;;;;;5026762;28;20025;-54
2023/09/22 00:07:59;;;;;;;10.70;5.30;;;16.70;99.90;;;;;;5026033;28;20022;-53
2023/09/22 00:10:24;;;;;;;7.20;5.20;;;16.70;99.90;;;;;;5027148;28;20025;-53
2023/09/22 00:12:50;;;;;;;7.55;5.13;;;16.70;99.90;;;;;;5024621;28;20067;-54
2023/09/22 00:15:15;;;;;;;6.30;4.55;;;16.70;99.90;;;;;;5027297;28;20033;-54
2023/09/22 00:17:41;;;;;;;6.20;4.45;;;16.70;99.90;;;;;;5026245;28;20025;-53
2023/09/22 00:20:13;;;;;;;6.90;4.68;;;16.70;99.90;;;;;;5026391;28;20081;-54
2023/09/22 00:22:39;;;;;;;8.38;4.75;;;16.70;99.90;;;;;;5019798;28;20040;-55
2023/09/22 00:25:05;;;;;;;5.78;4.90;;;16.70;99.90;;;;;;5025822;28;20042;-54
2023/09/22 00:27:30;;;;;;;6.78;5.78;;;16.70;99.90;;;;;;5027392;28;20022;-53
2023/09/22 00:29:56;;;;;;;8.55;5.07;;;16.60;99.90;;;;;;5025119;28;20026;-54
2023/09/22 00:32:21;;;;;;;6.57;5.10;;;16.60;99.90;;;;;;5031765;28;20036;-54
2023/09/22 00:34:47;;;;;;;9.13;5.35;;;16.60;99.90;;;;;;5024848;28;20033;-53
2023/09/22 00:37:12;;;;;;;7.93;5.95;;;16.60;99.90;;;;;;5025839;28;20563;-53
2023/09/22 00:39:38;;;;;;;6.40;4.90;;;16.60;99.90;;;;;;5026828;28;20032;-54
2023/09/22 00:42:08;;;;;;;7.57;4.55;;;16.50;99.90;;;;;;5025147;28;20483;-54
2023/09/22 00:44:33;;;;;;;6.13;4.15;;;16.50;99.90;;;;;;5026723;28;20025;-54
2023/09/22 00:47:00;;;;;;;5.72;4.50;;;16.50;99.90;;;;;;5027259;28;20423;-54
2023/09/22 00:49:27;;;;;;;9.55;4.57;;;16.50;99.90;;;;;;5027178;28;20033;-54
2023/09/22 00:51:53;;;;;;;6.20;4.47;;;16.50;99.90;;;;;;5026425;28;20018;-54
2023/09/22 00:54:19;;;;;;;5.82;3.40;;;16.40;99.90;;;;;;5024585;28;20033;-54
2023/09/22 00:56:46;;;;;;;4.22;3.63;;;16.40;99.90;;;;;;5025785;28;20026;-54
2023/09/22 00:59:14;;;;;;;6.25;3.58;;;16.40;99.90;;;;;;5026768;28;20033;-54
2023/09/22 01:01:41;;;;;;;4.78;3.38;;;16.40;99.90;;;;;;5024572;28;20064;-54
2023/09/22 01:04:06;;;;;;;6.45;3.58;;;16.30;99.90;;;;;;5026620;28;20025;-53
2023/09/22 01:06:32;;;;;;;5.07;3.33;;;16.30;99.90;;;;;;5026903;28;20024;-53
2023/09/22 01:09:05;;;;;;;3.90;3.03;;;16.30;99.90;;;;;;5025168;28;20029;-54
2023/09/22 01:11:33;;;;;;;8.25;3.80;;;16.30;99.90;;;;;;5026006;28;20017;-54
2023/09/22 01:13:58;;;;;;;7.03;3.58;;;16.20;99.90;;;;;;5020083;28;20037;-54
2023/09/22 01:16:24;;;;;;;6.18;3.40;;;16.20;99.90;;;;;;5026559;28;20038;-54
2023/09/22 01:18:49;;;;;;;5.22;3.08;;;16.20;99.90;;;;;;5025398;28;20033;-54
2023/09/22 01:21:15;;;;;;;4.63;2.95;;;16.20;99.90;;;;;;5026274;28;20390;-54
2023/09/22 01:23:41;;;;;;;5.45;2.60;;;16.20;99.90;;;;;;5019762;28;20029;-54
2023/09/22 01:26:07;;;;;;;4.40;2.30;;;16.10;99.90;;;;;;5021868;28;20033;-54
2023/09/22 01:28:32;;;;;;;2.63;2.08;;;16.10;99.90;;;;;;5017627;28;20310;-54
2023/09/22 01:30:59;;;;;;;3.60;2.92;;;16.10;99.90;;;;;;5020587;28;20460;-54
2023/09/22 01:33:24;;;;;;;2.80;2.50;;;16.10;99.90;;;;;;5020063;28;20014;-54
2023/09/22 01:35:50;;;;;;;4.45;2.63;;;16.00;99.90;;;;;;5017573;28;20459;-54
2023/09/22 01:38:23;;;;;;;4.70;2.22;;;16.00;99.90;;;;;;5023392;28;20037;-54
2023/09/22 01:40:49;;;;;;;5.88;3.00;;;15.90;99.90;;;;;;5020928;28;20495;-54
2023/09/22 01:43:16;;;;;;;4.57;2.70;;;16.00;99.90;;;;;;5018018;28;20030;-54
2023/09/22 01:45:42;;;;;;;2.92;2.10;;;16.00;99.90;;;;;;5025930;28;20010;-54
2023/09/22 01:48:08;;;;;;;5.82;2.45;;;15.90;99.90;;;;;;5018910;28;20051;-54
2023/09/22 01:50:37;;;;;;;3.60;2.45;;;15.90;99.90;;;;;;5023846;28;20101;-54
2023/09/22 01:53:09;;;;;;;4.30;2.28;;;15.80;99.90;;;;;;5024221;28;20049;-54
2023/09/22 01:55:39;;;;;;;2.60;2.22;;;15.80;99.90;;;;;;5026492;28;20032;-54
2023/09/22 01:58:05;;;;;;;5.30;2.30;;;15.70;99.90;;;;;;5026597;28;20014;-54
2023/09/22 02:00:38;;;;;;;2.83;2.08;;;15.70;99.90;;;;;;5030627;28;20105;-54
2023/09/22 02:03:05;;;;;;;2.83;2.03;;;15.60;99.90;;;;;;5027256;28;20087;-54
2023/09/22 02:05:31;;;;;;;2.75;2.25;;;15.70;99.90;;;;;;5023305;28;20576;-54
2023/09/22 02:07:57;;;;;;;3.45;2.20;;;15.60;99.90;;;;;;5019869;28;20034;-54
2023/09/22 02:10:22;;;;;;;2.00;1.80;;;15.60;99.90;;;;;;5020725;28;20144;-54
2023/09/22 02:12:48;;;;;;;2.65;2.10;;;15.60;99.90;;;;;;5022089;28;20112;-54
2023/09/22 02:15:14;;;;;;;2.15;1.67;;;15.50;99.90;;;;;;5021499;28;20160;-54
2023/09/22 02:17:44;;;;;;;4.47;1.98;;;15.50;99.90;;;;;;5021899;28;20053;-54
2023/09/22 02:20:22;;;;;;;3.83;2.08;;;15.50;99.90;;;;;;5033682;28;20226;-54
2023/09/22 02:22:55;;;;;;;2.78;1.92;;;15.60;99.90;;;;;;5024605;28;20033;-54
2023/09/22 02:25:21;;;;;;;4.97;2.58;;;15.50;99.90;;;;;;5023553;28;20022;-53
2023/09/22 02:27:48;;;;;;;2.30;1.85;;;15.50;99.90;;;;;;5024092;28;20087;-54
2023/09/22 02:30:17;;;;;;;2.33;1.98;;;15.50;99.90;;;;;;5021364;28;20022;-54
2023/09/22 02:32:48;;;;;;;2.47;2.22;;;15.50;99.90;;;;;;5016829;28;20029;-54
2023/09/22 02:35:14;;;;;;;3.47;2.03;;;15.50;99.90;;;;;;5019031;28;20021;-54
2023/09/22 02:37:40;;;;;;;2.08;1.85;;;15.50;99.90;;;;;;5022147;28;20060;-54
2023/09/22 02:40:06;;;;;;;4.20;2.22;;;15.50;99.90;;;;;;5025014;28;20483;-54
2023/09/22 02:42:32;;;;;;;2.28;1.95;;;15.40;99.90;;;;;;5024271;28;20514;-54
2023/09/22 02:44:58;;;;;;;3.60;2.40;;;15.40;99.90;;;;;;5024682;28;20534;-54
2023/09/22 02:47:27;;;;;;;1.85;1.60;;;15.40;99.90;;;;;;5022043;28;20052;-54
2023/09/22 02:49:53;;;;;;;3.50;1.90;;;15.40;99.90;;;;;;5022360;28;20017;-54
2023/09/22 02:52:18;;;;;;;2.55;2.08;;;15.30;99.90;;;;;;5026172;28;20040;-54
2023/09/22 02:54:44;;;;;;;2.90;1.90;;;15.40;99.90;;;;;;5019386;28;20390;-54
2023/09/22 02:57:09;;;;;;;2.72;1.88;;;15.30;99.90;;;;;;5021685;28;20030;-54
2023/09/22 02:59:35;;;;;;;3.13;1.73;;;15.30;99.90;;;;;;5026504;28;20100;-52
2023/09/22 03:02:00;;;;;;;2.03;1.83;;;15.20;99.90;;;;;;5018987;28;20519;-51
2023/09/22 03:04:26;;;;;;;2.13;1.90;;;15.10;99.90;;;;;;5021195;28;20092;-52
2023/09/22 03:06:52;;;;;;;4.38;1.70;;;15.10;99.90;;;;;;5023078;28;20018;-52
2023/09/22 03:09:18;;;;;;;3.97;2.10;;;15.10;99.90;;;;;;5025296;28;20092;-51
2023/09/22 03:11:43;;;;;;;3.85;1.60;;;15.10;99.90;;;;;;5025367;28;20487;-50
2023/09/22 03:14:09;;;;;;;5.43;2.22;;;15.20;99.90;;;;;;5027138;28;20022;-50
2023/09/22 03:16:35;;;;;;;2.97;1.67;;;15.20;99.90;;;;;;5025013;28;20017;-51
2023/09/22 03:19:01;;;;;;;2.13;1.90;;;15.20;99.90;;;;;;5019409;28;20504;-51
2023/09/22 03:21:26;;;;;;;2.58;1.80;;;15.20;99.90;;;;;;5026344;28;20032;-51
2023/09/22 03:23:53;;;;;;;2.60;1.80;;;15.20;99.90;;;;;;5019449;28;20029;-51
2023/09/22 03:26:19;;;;;;;2.10;1.88;;;15.20;99.90;;;;;;5019456;28;20049;-52
2023/09/22 03:28:46;;;;;;;2.47;1.92;;;15.20;99.90;;;;;;5020306;28;20075;-53
2023/09/22 03:31:12;;;;;;;3.30;1.92;;;15.20;99.90;;;;;;5024206;28;20022;-54
2023/09/22 03:33:40;;;;;;;2.45;1.73;;;15.20;99.90;;;;;;5023041;28;20529;-53
2023/09/22 03:36:12;;;;;;;1.90;1.60;;;15.20;99.90;;;;;;5023618;28;20105;-53
2023/09/22 03:38:40;;;;;;;2.00;1.60;;;15.20;99.90;;;;;;5023504;28;20037;-53
2023/09/22 03:41:05;;;;;;;3.10;2.00;;;15.20;99.90;;;;;;5021769;28;20030;-53
2023/09/22 03:43:32;;;;;;;3.17;1.77;;;15.20;99.90;;;;;;5030308;28;20022;-54
2023/09/22 03:45:58;;;;;;;5.43;1.85;;;15.30;99.90;;;;;;5029024;28;20072;-54
2023/09/22 03:48:23;;;;;;;1.60;1.50;;;15.20;99.90;;;;;;5026061;28;20021;-56
2023/09/22 03:50:49;;;;;;;2.78;1.75;;;15.20;99.90;;;;;;5027842;28;20064;-55
2023/09/22 03:53:15;;;;;;;2.60;1.70;;;15.30;99.90;;;;;;5030077;28;20025;-55
2023/09/22 03:55:40;;;;;;;3.58;1.83;;;15.20;99.90;;;;;;5028949;28;20470;-55
2023/09/22 03:58:06;;;;;;;1.83;1.40;;;15.20;99.90;;;;;;5029533;28;20438;-55
2023/09/22 04:00:32;;;;;;;1.77;1.42;;;15.30;99.90;;;;;;5027948;28;20053;-55
2023/09/22 04:02:59;;;;;;;1.98;1.67;;;15.20;99.90;;;;;;5027228;28;20030;-55
2023/09/22 04:05:28;;;;;;;1.90;1.30;;;15.20;99.90;;;;;;5026648;28;20017;-54
2023/09/22 04:07:57;;;;;;;2.83;1.50;;;15.20;99.90;;;;;;5027137;28;20048;-55
2023/09/22 04:10:23;;;;;;;3.80;2.03;;;15.20;99.90;;;;;;5024777;28;20030;-55
2023/09/22 04:12:49;;;;;;;2.85;1.70;;;15.20;99.90;;;;;;5027107;28;20079;-55
2023/09/22 04:15:15;;;;;;;2.70;1.38;;;15.20;99.90;;;;;;5029480;28;20034;-55
2023/09/22 04:17:40;;;;;;;2.25;1.42;;;15.10;99.90;;;;;;5026055;28;20245;-56
2023/09/22 04:20:08;;;;;;;1.58;1.33;;;15.10;99.90;;;;;;5020834;28;20521;-56
2023/09/22 04:22:34;;;;;;;3.33;1.60;;;15.10;99.90;;;;;;5023912;28;20098;-53
2023/09/22 04:25:01;;;;;;;3.60;1.60;;;15.00;99.90;;;;;;5028273;28;20586;-53
2023/09/22 04:27:36;;;;;;;2.67;1.38;;;15.00;99.90;;;;;;5024524;28;20021;-53
2023/09/22 04:30:07;;;;;;;2.15;1.88;;;15.00;99.90;;;;;;5027259;28;20010;-53
2023/09/22 04:32:33;;;;;;;1.80;1.50;;;15.00;99.90;;;;;;5027572;28;20065;-52
2023/09/22 04:34:59;;;;;;;1.83;1.50;;;15.00;99.90;;;;;;5023686;28;20076;-53
2023/09/22 04:37:25;;;;;;;2.92;1.63;;;15.00;99.90;;;;;;5027901;28;20595;-52
2023/09/22 04:39:52;;;;;;;2.03;1.55;;;15.00;99.90;;;;;;5022222;28;20116;-52
2023/09/22 04:42:18;;;;;;;5.20;1.42;;;15.00;99.90;;;;;;5020894;28;20408;-51
2023/09/22 04:44:44;;;;;;;1.63;1.35;;;14.90;99.90;;;;;;5019215;28;20032;-51
2023/09/22 04:47:10;;;;;;;2.38;1.50;;;14.90;99.90;;;;;;5022281;28;20021;-52
2023/09/22 04:49:36;;;;;;;2.33;1.60;;;14.90;99.90;;;;;;5025568;28;20063;-52
2023/09/22 04:52:02;;;;;;;2.42;1.70;;;14.80;99.90;;;;;;5022526;28;20064;-54
2023/09/22 04:54:29;;;;;;;3.08;1.50;;;14.90;99.90;;;;;;5027711;28;20028;-54
2023/09/22 04:56:55;;;;;;;4.78;1.77;;;14.80;99.90;;;;;;5027171;28;20061;-53
2023/09/22 04:59:20;;;;;;;5.20;1.52;;;14.80;99.90;;;;;;5029640;28;20022;-54
2023/09/22 05:01:46;;;;;;;2.30;1.48;;;14.70;99.90;;;;;;5020900;28;20021;-53
2023/09/22 05:04:11;;;;;;;2.25;1.60;;;14.70;99.90;;;;;;5025798;28;20059;-53
2023/09/22 05:06:37;;;;;;;3.42;2.00;;;14.70;99.90;;;;;;5029853;28;20101;-53
2023/09/22 05:09:03;;;;;;;2.20;1.70;;;14.70;99.90;;;;;;5025220;28;20037;-52
2023/09/22 05:11:28;;;;;;;2.05;1.35;;;14.70;99.90;;;;;;5022250;28;20028;-52
2023/09/22 05:13:54;;;;;;;2.35;1.77;;;14.70;99.90;;;;;;5025243;28;20025;-51
2023/09/22 05:16:21;;;;;;;3.05;1.67;;;14.70;99.90;;;;;;5028005;28;20072;-52
2023/09/22 05:18:46;;;;;;;2.88;1.60;;;14.80;99.90;;;;;;5019990;28;20022;-52
2023/09/22 05:21:12;;;;;;;1.73;1.38;;;14.80;99.90;;;;;;5024048;28;20356;-52
2023/09/22 05:23:38;;;;;;;3.10;1.67;;;14.80;99.90;;;;;;5027530;28;20509;-52
2023/09/22 05:26:08;;;;;;;4.65;2.00;;;14.80;99.90;;;;;;5042516;28;20028;-52
2023/09/22 05:28:34;;;;;;;1.58;1.30;;;14.80;99.90;;;;;;5023019;28;20040;-52
2023/09/22 05:31:00;;;;;;;3.75;1.98;;;14.80;99.90;;;;;;5026027;28;20111;-52
2023/09/22 05:33:28;;;;;;;3.47;1.83;;;14.80;99.90;;;;;;5021175;28;20076;-52
2023/09/22 05:35:54;;;;;;;4.97;2.03;;;14.80;99.90;;;;;;5026273;28;20104;-52
2023/09/22 05:38:20;;;;;;;4.28;2.30;;;14.80;99.90;;;;;;5028475;28;20180;-52
2023/09/22 05:40:45;;;;;;;4.22;2.40;;;14.80;99.90;;;;;;5025610;28;20411;-53
2023/09/22 05:43:12;;;;;;;2.00;1.70;;;14.80;99.90;;;;;;5030381;28;20030;-52
2023/09/22 05:45:38;;;;;;;3.92;1.98;;;14.80;99.90;;;;;;5026223;28;20044;-52
2023/09/22 05:48:04;;;;;;;5.32;1.95;;;14.90;99.90;;;;;;5025567;28;20029;-52
2023/09/22 05:50:30;;;;;;;5.28;1.98;;;14.80;99.90;;;;;;5023671;28;20104;-51
2023/09/22 05:52:56;;;;;;;3.58;2.00;;;14.90;99.90;;;;;;5028763;28;20104;-52
2023/09/22 05:55:22;;;;;;;4.40;1.90;;;14.90;99.90;;;;;;5029618;28;20025;-52
2023/09/22 05:57:50;;;;;;;2.80;1.75;;;14.90;99.90;;;;;;5028221;28;20080;-52
2023/09/22 06:00:16;;;;;;;3.08;2.08;;;14.90;99.90;;;;;;5028019;28;20051;-52
2023/09/22 06:02:51;;;;;;;7.35;2.42;;;15.00;99.90;;;;;;5017978;28;20064;-52
2023/09/22 06:05:22;;;;;;;4.70;2.05;;;14.90;99.90;;;;;;5015712;28;20029;-51
2023/09/22 06:07:49;;;;;;;3.22;1.83;;;14.90;99.90;;;;;;5016573;28;20014;-52
2023/09/22 06:10:14;;;;;;;5.63;2.05;;;15.00;99.90;;;;;;5012380;28;20029;-51
2023/09/22 06:12:40;;;;;;;2.88;1.70;;;15.00;99.90;;;;;;5015839;28;20022;-52
2023/09/22 06:15:07;;;;;;;3.50;2.00;;;15.00;99.90;;;;;;5021733;28;20021;-51
2023/09/22 06:17:33;;;;;;;2.63;1.70;;;15.00;99.90;;;;;;5009590;28;20022;-51
2023/09/22 06:19:59;;;;;;;2.58;1.70;;;15.00;99.90;;;;;;5017979;28;20018;-52
2023/09/22 06:22:25;;;;;;;3.38;1.58;;;15.00;99.90;;;;;;5009532;28;20040;-52
2023/09/22 06:24:51;;;;;;;3.38;2.00;;;15.10;99.90;;;;;;5017012;28;20014;-52
2023/09/22 06:27:17;;;;;;;2.80;1.95;;;15.10;99.90;;;;;;5017460;28;20089;-51
2023/09/22 06:29:43;;;;;;;1.50;1.40;;;15.10;99.90;;;;;;5023965;28;20026;-51
2023/09/22 06:32:08;;;;;;;3.05;1.70;;;15.10;99.90;;;;;;5014182;28;20318;-52
2023/09/22 06:34:34;;;;;;;2.03;1.50;;;15.10;99.90;;;;;;5017776;28;20018;-52
2023/09/22 06:37:00;;;;;;;2.55;1.67;;;15.10;99.90;;;;;;5025787;28;20026;-51
2023/09/22 06:39:25;;;;;;;2.40;1.50;;;15.10;99.90;;;;;;5009640;28;20021;-52
2023/09/22 06:41:51;;;;;;;1.73;1.30;;;15.10;99.90;;;;;;5009723;28;20021;-52
2023/09/22 06:44:16;;;;;;;3.35;1.77;;;15.20;99.90;;;;;;5013385;28;20068;-52
2023/09/22 06:46:42;;;;;;;2.15;1.38;;;15.20;99.90;;;;;;5013164;28;20030;-52
2023/09/22 06:49:08;;;;;;;2.28;1.45;;;15.20;99.90;;;;;;5019000;28;20037;-51
2023/09/22 06:51:36;;;;;;;2.65;1.45;;;15.20;99.90;;;;;;5017330;28;20036;-50
2023/09/22 06:54:02;;;;;;;5.50;1.63;;;15.20;99.90;;;;;;5018528;28;20117;-52
2023/09/22 06:56:28;;;;;;;2.28;1.73;;;15.20;99.90;;;;;;5030818;28;20120;-51
2023/09/22 06:58:53;;;;;;;3.40;1.58;;;15.30;99.90;;;;;;5010050;28;20101;-51
2023/09/22 07:01:19;;;;;;;1.42;1.30;;;15.30;99.90;;;;;;5010984;28;20484;-52
2023/09/22 07:03:46;;;;;;;2.58;1.85;;;15.40;99.90;;;;;;5009734;28;20439;-52
2023/09/22 07:06:14;;;;;;;4.60;1.35;;;15.40;99.90;;;;;;5020821;28;20510;-52
2023/09/22 07:08:41;;;;;;;2.70;1.38;;;15.40;99.90;;;;;;5021204;28;20452;-52
2023/09/22 07:11:08;;;;;;;2.58;1.60;;;15.40;99.90;;;;;;5013964;28;20030;-51
2023/09/22 07:13:34;;;;;;;3.33;1.60;;;15.50;99.90;;;;;;5013110;28;20426;-51
2023/09/22 07:16:00;;;;;;;2.20;1.40;;;15.60;99.90;;;;;;5020637;28;20057;-51
2023/09/22 07:18:26;;;;;;;3.20;1.38;;;15.50;99.90;;;;;;5013326;28;20084;-51
2023/09/22 07:20:53;;;;;;;1.85;1.45;;;15.60;99.90;;;;;;5018937;28;20033;-51
2023/09/22 07:23:20;;;;;;;2.40;1.98;;;15.60;99.90;;;;;;5013329;28;20041;-51
2023/09/22 07:25:46;;;;;;;3.00;1.50;;;15.70;99.90;;;;;;5020676;28;20022;-52
2023/09/22 07:28:13;;;;;;;2.40;1.50;;;15.70;99.90;;;;;;5014019;28;20053;-52
2023/09/22 07:30:38;;;;;;;4.35;1.85;;;15.70;99.90;;;;;;5014505;28;20088;-52
2023/09/22 07:33:04;;;;;;;3.88;1.45;;;15.70;99.90;;;;;;5014959;28;20046;-52
2023/09/22 07:35:29;;;;;;;2.58;1.70;;;15.80;99.90;;;;;;5020151;28;20014;-52
2023/09/22 07:37:55;;;;;;;2.65;1.90;;;15.80;99.90;;;;;;5018097;28;20695;-52
2023/09/22 07:40:21;;;;;;;1.63;1.38;;;15.80;99.90;;;;;;5013026;28;20025;-52
2023/09/22 07:42:46;;;;;;;1.95;1.20;;;15.80;99.90;;;;;;5021415;28;20061;-52
2023/09/22 07:45:12;;;;;;;3.17;1.70;;;15.90;99.90;;;;;;5030760;28;20030;-52
2023/09/22 07:47:38;;;;;;;4.35;1.92;;;15.80;99.90;;;;;;5022365;28;20467;-51
2023/09/22 07:50:06;;;;;;;4.28;1.83;;;15.80;99.90;;;;;;5014555;28;20101;-52
2023/09/22 07:52:32;;;;;;;4.25;2.00;;;15.80;99.90;;;;;;5019187;28;20108;-51
2023/09/22 07:54:59;;;;;;;2.88;1.88;;;15.80;99.90;;;;;;5031051;28;20098;-56
2023/09/22 07:57:25;;;;;;;3.70;2.10;;;15.70;99.90;;;;;;5013217;28;20049;-52
2023/09/22 07:59:51;;;;;;;2.67;1.83;;;15.70;99.90;;;;;;5028664;28;20022;-52
2023/09/22 08:02:17;;;;;;;3.13;2.80;;;15.70;99.90;;;;;;5021460;28;20140;-52
2023/09/22 08:04:43;;;;;;;3.42;2.10;;;15.70;99.90;;;;;;5017376;28;20025;-52
2023/09/22 08:07:08;;;;;;;3.65;2.42;;;15.80;99.90;;;;;;5018341;28;20566;-52
2023/09/22 08:09:34;;;;;;;3.25;2.90;;;15.90;99.90;;;;;;5013558;28;20097;-51
2023/09/22 08:11:59;;;;;;;3.25;2.50;;;15.90;99.90;;;;;;5015451;28;20026;-51
2023/09/22 08:14:26;;;;;;;10.60;2.90;;;15.90;99.90;;;;;;5035181;28;20022;-52
2023/09/22 08:16:51;;;;;;;5.43;2.83;;;15.90;99.90;;;;;;5025955;28;20022;-51
2023/09/22 08:19:17;;;;;;;3.15;2.40;;;16.00;99.90;;;;;;5018455;28;20033;-51
2023/09/22 08:21:44;;;;;;;6.63;3.05;;;16.10;99.90;;;;;;5017425;28;20371;-52
2023/09/22 08:24:11;;;;;;;3.55;2.60;;;16.20;99.90;;;;;;5020728;28;20033;-51
2023/09/22 08:26:36;;;;;;;3.35;2.50;;;16.10;99.90;;;;;;5023929;28;20546;-51
2023/09/22 08:29:04;;;;;;;7.28;3.53;;;16.10;99.90;;;;;;5015438;28;20101;-52
2023/09/22 08:31:30;;;;;;;4.45;2.85;;;16.20;99.90;;;;;;5013847;28;20531;-52
2023/09/22 08:33:57;;;;;;;4.75;2.90;;;16.20;99.90;;;;;;5015590;28;20040;-52
2023/09/22 08:36:22;;;;;;;4.10;2.63;;;16.30;99.90;;;;;;5022331;28;20033;-52
2023/09/22 08:38:49;;;;;;;2.88;2.40;;;16.30;99.90;;;;;;5019526;28;20033;-52
2023/09/22 08:41:14;;;;;;;7.15;2.75;;;16.30;99.90;;;;;;5017463;28;20112;-53
2023/09/22 08:43:40;;;;;;;3.45;2.22;;;16.50;99.90;;;;;;5011280;28;20105;-52
2023/09/22 08:46:06;;;;;;;2.78;2.10;;;16.70;99.90;;;;;;5013721;28;20104;-52
2023/09/22 08:48:31;;;;;;;2.70;2.05;;;16.70;99.90;;;;;;5011698;28;20028;-51
2023/09/22 08:50:57;;;;;;;3.65;2.03;;;16.80;99.90;;;;;;5012340;28;20017;-52
2023/09/22 08:53:23;;;;;;;3.50;1.83;;;16.80;99.90;;;;;;5024005;28;20375;-51
2023/09/22 08:55:51;;;;;;;4.13;2.10;;;16.70;99.90;;;;;;5021580;28;20033;-51
2023/09/22 08:58:20;;;;;;;4.18;2.13;;;16.70;99.90;;;;;;5019442;28;20022;-51
2023/09/22 09:00:51;;;;;;;2.90;1.90;;;16.60;99.90;;;;;;5015051;28;20026;-52
2023/09/22 09:03:18;;;;;;;3.95;2.10;;;16.70;99.90;;;;;;5012158;28;20065;-52
2023/09/22 09:05:44;;;;;;;3.92;2.22;;;16.70;99.90;;;;;;5012528;28;20028;-51
2023/09/22 09:08:12;;;;;;;5.35;2.17;;;16.60;99.90;;;;;;5012812;28;20399;-52
2023/09/22 09:10:39;;;;;;;3.85;1.75;;;16.70;99.90;;;;;;5016642;28;20026;-52
2023/09/22 09:13:07;;;;;;;5.47;1.73;;;16.70;99.90;;;;;;5016148;28;20033;-52
2023/09/22 09:15:45;;;;;;;2.15;1.95;;;16.70;99.90;;;;;;5018647;28;20080;-51
2023/09/22 09:18:12;;;;;;;3.53;2.50;;;16.70;99.90;;;;;;5013908;28;20404;-52
2023/09/22 09:20:40;;;;;;;2.40;2.00;;;16.90;99.90;;;;;;5018467;28;20104;-51
2023/09/22 09:23:19;;;;;;;3.13;2.20;;;16.90;99.90;;;;;;5018178;28;20112;-51
2023/09/22 09:25:54;;;;;;;2.25;2.03;;;17.10;99.90;;;;;;5019911;28;20022;-52
2023/09/22 09:28:21;;;;;;;2.25;1.85;;;17.10;99.90;;;;;;5012217;28;20037;-52
2023/09/22 09:30:52;;;;;;;5.18;1.85;;;17.30;99.90;;;;;;5034099;28;20110;-53
2023/09/22 09:33:22;;;;;;;2.05;1.80;;;17.40;99.90;;;;;;5012444;28;20030;-52
2023/09/22 09:35:49;;;;;;;3.40;2.28;;;17.30;99.90;;;;;;5022040;28;20092;-52
2023/09/22 09:38:15;;;;;;;3.45;1.95;;;17.20;99.90;;;;;;5028779;28;20487;-52
2023/09/22 09:40:41;;;;;;;3.55;1.75;;;17.30;99.90;;;;;;5018301;28;20029;-52
2023/09/22 09:43:12;;;;;;;2.60;1.90;;;17.30;99.90;;;;;;5015469;28;20077;-51
2023/09/22 09:45:41;;;;;;;3.97;1.98;;;17.30;99.90;;;;;;5033008;28;20018;-51
2023/09/22 09:48:16;;;;;;;4.82;2.08;;;17.50;99.90;;;;;;5013572;28;20041;-52
2023/09/22 09:50:54;;;;;;;5.90;2.13;;;17.60;99.90;;;;;;5011996;28;20041;-52
2023/09/22 09:53:46;;;;;;;4.82;4.30;;;17.80;99.90;;;;;;5020167;28;20044;-51
2023/09/22 09:56:16;;;;;;;2.10;1.90;;;18.10;99.90;;;;;;5023389;28;20116;-52
2023/09/22 09:58:42;;;;;;;2.67;1.63;;;18.10;99.90;;;;;;5014081;28;20029;-52
2023/09/22 10:01:08;;;;;;;2.60;1.70;;;18.20;99.90;;;;;;5018033;28;20045;-52
2023/09/22 10:03:36;;;;;;;2.60;1.40;;;18.30;99.90;;;;;;5011781;28;20364;-52
2023/09/22 10:06:03;;;;;;;3.45;1.65;;;18.40;99.90;;;;;;5013482;28;20022;-52
2023/09/22 10:08:30;;;;;;;3.83;1.98;;;18.40;99.90;;;;;;5015555;28;20068;-52
2023/09/22 10:11:01;;;;;;;2.42;1.50;;;18.80;99.90;;;;;;5014235;28;20022;-52
2023/09/22 10:13:27;;;;;;;4.07;1.88;;;18.90;99.90;;;;;;5023474;28;20025;-52
2023/09/22 10:16:00;;;;;;;5.22;1.35;;;18.90;99.90;;;;;;5018781;28;20394;-52
2023/09/22 10:18:50;;;;;;;1.77;1.20;;;18.90;99.90;;;;;;5022996;28;20495;-51
2023/09/22 10:21:34;;;;;;;3.58;1.42;;;18.50;99.90;;;;;;5020252;28;20029;-52
2023/09/22 10:24:23;;;;;;;3.13;1.20;;;18.60;99.90;;;;;;5014485;28;20105;-52
2023/09/22 10:27:03;;;;;;;1.50;1.40;;;19.60;99.90;;;;;;5023992;28;20022;-53
2023/09/22 10:29:34;;;;;;;3.83;1.35;;;20.00;99.90;;;;;;5021968;28;20565;-52
2023/09/22 10:32:18;;;;;;;3.05;1.50;;;19.80;99.90;;;;;;5019582;28;20025;-51
2023/09/22 10:34:51;;;;;;;4.32;1.35;;;19.70;99.90;;;;;;5012385;28;20057;-51
2023/09/22 10:37:24;;;;;;;2.92;1.30;;;19.20;99.90;;;;;;5022083;28;20021;-52
2023/09/22 10:40:11;;;;;;;4.28;1.58;;;18.90;99.90;;;;;;5018138;28;20095;-51
2023/09/22 10:42:45;;;;;;;5.22;1.63;;;18.50;99.90;;;;;;5017586;28;20391;-51
2023/09/22 10:45:12;;;;;;;3.55;1.65;;;18.50;99.90;;;;;;5023910;28;20052;-51
2023/09/22 10:47:45;;;;;;;4.80;1.85;;;18.20;99.90;;;;;;5016322;28;20021;-51
2023/09/22 10:50:16;;;;;;;8.02;1.73;;;18.20;99.90;;;;;;5023537;28;20549;-50
2023/09/22 10:52:50;;;;;;;5.40;1.60;;;18.20;99.90;;;;;;5016927;28;20040;-51
2023/09/22 10:55:35;;;;;;;2.65;1.52;;;18.30;99.90;;;;;;5015064;28;20123;-51
2023/09/22 10:58:03;;;;;;;2.97;1.45;;;18.20;99.90;;;;;;5017672;28;20030;-51
2023/09/22 11:00:31;;;;;;;3.13;1.30;;;18.70;99.90;;;;;;5020182;28;20030;-52
2023/09/22 11:03:04;;;;;;;2.75;1.30;;;20.20;99.90;;;;;;5022823;28;20021;-52
2023/09/22 11:05:30;;;;;;;2.88;1.40;;;21.90;99.90;;;;;;5021238;28;20034;-51
2023/09/22 11:07:55;;;;;;;3.50;1.65;;;22.20;98.90;;;;;;5021877;28;20026;-52
2023/09/22 11:10:22;;;;;;;4.53;1.17;;;22.90;98.30;;;;;;5017542;28;20558;-53
2023/09/22 11:12:51;;;;;;;2.38;1.13;;;24.10;96.00;;;;;;5024340;28;20026;-53
2023/09/22 11:15:18;;;;;;;5.20;1.50;;;25.10;94.10;;;;;;5023802;28;20054;-53
2023/09/22 11:17:46;;;;;;;1.55;1.13;;;24.20;92.20;;;;;;5015658;28;20300;-53
2023/09/22 11:20:27;;;;;;;2.33;1.08;;;24.10;92.20;;;;;;5022404;28;20112;-53
2023/09/22 11:22:53;;;;;;;1.42;0.90;;;25.30;90.90;;;;;;5016068;28;20051;-53
2023/09/22 11:25:21;;;;;;;2.78;1.25;;;25.80;91.20;;;;;;5017385;28;20025;-53
2023/09/22 11:27:49;;;;;;;1.70;1.05;;;25.70;88.80;;;;;;5021395;28;20387;-52
2023/09/22 11:30:21;;;;;;;3.08;1.50;;;25.30;87.30;;;;;;5014283;28;20053;-53
2023/09/22 11:32:47;;;;;;;1.83;1.50;;;24.00;90.10;;;;;;5022024;28;20060;-53
2023/09/22 11:35:39;;;;;;;2.92;1.10;;;23.00;91.40;;;;;;5024233;28;20033;-52
2023/09/22 11:38:26;;;;;;;4.35;1.27;;;23.00;92.50;;;;;;5038514;28;20025;-52
2023/09/22 11:41:14;;;;;;;3.58;1.38;;;22.50;93.80;;;;;;5025065;28;20052;-52
2023/09/22 11:43:52;;;;;;;4.72;1.35;;;22.50;94.20;;;;;;5019036;28;20026;-52
2023/09/22 11:46:25;;;;;;;3.35;1.45;;;22.20;93.50;;;;;;5020117;28;20021;-52
2023/09/22 11:49:00;;;;;;;2.03;1.20;;;22.10;94.50;;;;;;5034740;28;20047;-52
2023/09/22 11:51:50;;;;;;;6.75;1.25;;;22.10;94.00;;;;;;5015271;28;20025;-52
2023/09/22 11:54:21;;;;;;;1.55;1.30;;;23.30;93.50;;;;;;5024645;28;20079;-52
2023/09/22 11:56:48;;;;;;;2.00;1.10;;;23.20;92.10;;;;;;5014546;28;20034;-52
2023/09/22 11:59:15;;;;;;;2.05;1.27;;;23.40;93.10;;;;;;5023138;28;20483;-53
2023/09/22 12:01:42;;;;;;;4.20;1.30;;;23.70;92.80;;;;;;5019688;28;20034;-53
2023/09/22 12:04:11;;;;;;;3.03;1.15;;;23.30;91.00;;;;;;5018241;28;20413;-53
2023/09/22 12:06:37;;;;;;;1.95;1.10;;;23.00;91.90;;;;;;5018634;28;20387;-52
2023/09/22 12:09:04;;;;;;;5.80;1.45;;;23.00;91.90;;;;;;5018098;28;20399;-52
2023/09/22 12:11:30;;;;;;;6.38;1.60;;;22.40;91.20;;;;;;5027209;28;20625;-52
2023/09/22 12:13:55;;;;;;;4.53;1.50;;;21.50;92.30;;;;;;5018402;28;20030;-52
2023/09/22 12:16:21;;;;;;;1.50;1.30;;;21.10;93.40;;;;;;5021355;28;20022;-52
2023/09/22 12:18:48;;;;;;;2.95;1.60;;;20.60;94.10;;;;;;5016061;28;20030;-52
2023/09/22 12:21:14;;;;;;;1.52;1.33;;;20.40;95.60;;;;;;5015215;28;20503;-52
2023/09/22 12:23:39;;;;;;;3.10;1.10;;;20.20;95.80;;;;;;5014223;28;20029;-52
2023/09/22 12:26:05;;;;;;;1.98;1.13;;;20.20;95.70;;;;;;5017477;28;20173;-52
2023/09/22 12:28:31;;;;;;;2.30;1.13;;;20.40;96.00;;;;;;5017670;28;20455;-52
2023/09/22 12:30:56;;;;;;;5.47;1.70;;;20.20;96.40;;;;;;5019499;28;20073;-52
2023/09/22 12:33:22;;;;;;;2.08;1.35;;;20.10;96.10;;;;;;5015556;28;20111;-52
2023/09/22 12:35:48;;;;;;;4.20;1.52;;;19.90;97.10;;;;;;5016106;28;20029;-51
2023/09/22 12:38:14;;;;;;;1.70;1.17;;;20.00;97.60;;;;;;5019860;28;20033;-52
2023/09/22 12:40:39;;;;;;;3.90;1.38;;;20.10;98.00;;;;;;5014171;28;20034;-52
2023/09/22 12:43:05;;;;;;;3.72;1.80;;;20.20;96.80;;;;;;5019802;28;20383;-51
2023/09/22 12:45:31;;;;;;;4.43;1.23;;;20.10;97.30;;;;;;5020020;28;20041;-53
2023/09/22 12:47:57;;;;;;;2.35;1.50;;;20.10;97.40;;;;;;5015403;28;20112;-51
2023/09/22 12:50:23;;;;;;;3.83;1.20;;;20.20;97.30;;;;;;5020628;28;20179;-51